sensor_id;sensor_type;location;lat;lon;timestamp;pressure;altitude;pressure_sealevel;temperature;humidity
7802;BME280;3945;48.952;9.506;2023-05-21T00:00:36;97522.97;;;17.63;77.03
7802;BME280;3945;48.952;9.506;2023-05-21T00:03:03;97518.41;;;17.63;76.68
7802;BME280;3945;48.952;9.506;2023-05-21T00:05:29;97521.56;;;17.65;77.05
7802;BME280;3945;48.952;9.506;2023-05-21T00:07:56;97519.69;;;17.66;77.18
7802;BME280;3945;48.952;9.506;2023-05-21T00:10:23;97525.88;;;17.66;77.17
7802;BME280;3945;48.952;9.506;2023-05-21T00:12:49;97521.28;;;17.67;77.01
7802;BME280;3945;48.952;9.506;2023-05-21T00:15:17;97518.09;;;17.65;77.26
7802;BME280;3945;48.952;9.506;2023-05-21T00:17:43;97521.28;;;17.67;77.15
7802;BME280;3945;48.952;9.506;2023-05-21T00:20:10;97522.69;;;17.64;77.02
7802;BME280;3945;48.952;9.506;2023-05-21T00:22:37;97522.19;;;17.62;77.17
7802;BME280;3945;48.952;9.506;2023-05-21T00:25:04;97512.75;;;17.60;77.81
7802;BME280;3945;48.952;9.506;2023-05-21T00:27:31;97510.88;;;17.60;77.13
7802;BME280;3945;48.952;9.506;2023-05-21T00:29:57;97514.97;;;17.58;77.38
7802;BME280;3945;48.952;9.506;2023-05-21T00:32:25;97520.94;;;17.54;77.36
7802;BME280;3945;48.952;9.506;2023-05-21T00:34:51;97512.06;;;17.54;77.21
7802;BME280;3945;48.952;9.506;2023-05-21T00:37:17;97512.34;;;17.52;77.36
7802;BME280;3945;48.952;9.506;2023-05-21T00:39:44;97511.06;;;17.50;77.87
7802;BME280;3945;48.952;9.506;2023-05-21T00:42:11;97510.84;;;17.46;78.11
7802;BME280;3945;48.952;9.506;2023-05-21T00:44:42;97500.97;;;17.42;78.09
7802;BME280;3945;48.952;9.506;2023-05-21T00:47:09;97496.78;;;17.36;78.35
7802;BME280;3945;48.952;9.506;2023-05-21T00:49:37;97507.31;;;17.32;78.35
7802;BME280;3945;48.952;9.506;2023-05-21T00:52:03;97497.13;;;17.29;78.25
7802;BME280;3945;48.952;9.506;2023-05-21T00:54:31;97500.44;;;17.26;78.78
7802;BME280;3945;48.952;9.506;2023-05-21T00:56:57;97491.94;;;17.19;79.04
7802;BME280;3945;48.952;9.506;2023-05-21T00:59:25;97498.19;;;17.14;79.19
7802;BME280;3945;48.952;9.506;2023-05-21T01:01:51;97497.97;;;17.11;79.12
7802;BME280;3945;48.952;9.506;2023-05-21T01:04:21;97494.06;;;17.03;79.71
7802;BME280;3945;48.952;9.506;2023-05-21T01:06:48;97494.88;;;17.04;79.72
7802;BME280;3945;48.952;9.506;2023-05-21T01:09:17;97493.06;;;16.99;80.27
7802;BME280;3945;48.952;9.506;2023-05-21T01:11:45;97493.34;;;16.98;80.19
7802;BME280;3945;48.952;9.506;2023-05-21T01:14:12;97497.94;;;16.97;79.95
7802;BME280;3945;48.952;9.506;2023-05-21T01:16:40;97490.44;;;16.94;80.30
7802;BME280;3945;48.952;9.506;2023-05-21T01:19:09;97491.31;;;16.90;80.37
7802;BME280;3945;48.952;9.506;2023-05-21T01:21:36;97485.72;;;16.86;80.38
7802;BME280;3945;48.952;9.506;2023-05-21T01:24:07;97491.19;;;16.81;80.90
7802;BME280;3945;48.952;9.506;2023-05-21T01:26:33;97485.88;;;16.76;81.09
7802;BME280;3945;48.952;9.506;2023-05-21T01:29:02;97485.66;;;16.72;81.06
7802;BME280;3945;48.952;9.506;2023-05-21T01:31:29;97477.41;;;16.69;81.40
7802;BME280;3945;48.952;9.506;2023-05-21T01:33:57;97490.59;;;16.65;81.61
7802;BME280;3945;48.952;9.506;2023-05-21T01:36:27;97489.78;;;16.65;81.68
7802;BME280;3945;48.952;9.506;2023-05-21T01:38:59;97486.09;;;16.61;82.28
7802;BME280;3945;48.952;9.506;2023-05-21T01:41:30;97486.34;;;16.59;82.45
7802;BME280;3945;48.952;9.506;2023-05-21T01:44:00;97485.31;;;16.60;82.07
7802;BME280;3945;48.952;9.506;2023-05-21T01:46:29;97489.31;;;16.58;82.32
7802;BME280;3945;48.952;9.506;2023-05-21T01:48:56;97486.16;;;16.56;82.12
7802;BME280;3945;48.952;9.506;2023-05-21T01:51:23;97488.31;;;16.54;82.18
7802;BME280;3945;48.952;9.506;2023-05-21T01:53:50;97489.19;;;16.49;82.59
7802;BME280;3945;48.952;9.506;2023-05-21T01:56:16;97488.75;;;16.42;83.00
7802;BME280;3945;48.952;9.506;2023-05-21T01:58:44;97481.25;;;16.39;82.88
7802;BME280;3945;48.952;9.506;2023-05-21T02:01:10;97486.72;;;16.34;83.36
7802;BME280;3945;48.952;9.506;2023-05-21T02:03:36;97480.59;;;16.28;83.59
7802;BME280;3945;48.952;9.506;2023-05-21T02:06:03;97481.97;;;16.26;83.53
7802;BME280;3945;48.952;9.506;2023-05-21T02:08:29;97482.25;;;16.24;83.82
7802;BME280;3945;48.952;9.506;2023-05-21T02:10:56;97476.69;;;16.21;84.38
7802;BME280;3945;48.952;9.506;2023-05-21T02:13:22;97473.75;;;16.17;84.20
7802;BME280;3945;48.952;9.506;2023-05-21T02:15:50;97476.19;;;16.14;84.50
7802;BME280;3945;48.952;9.506;2023-05-21T02:18:18;97478.97;;;16.09;84.63
7802;BME280;3945;48.952;9.506;2023-05-21T02:20:45;97477.44;;;16.02;85.03
7802;BME280;3945;48.952;9.506;2023-05-21T02:23:12;97470.72;;;16.00;84.88
7802;BME280;3945;48.952;9.506;2023-05-21T02:25:38;97471.88;;;15.94;85.71
7802;BME280;3945;48.952;9.506;2023-05-21T02:28:05;97471.94;;;15.89;86.12
7802;BME280;3945;48.952;9.506;2023-05-21T02:30:31;97471.44;;;15.87;86.12
7802;BME280;3945;48.952;9.506;2023-05-21T02:32:59;97477.88;;;15.86;86.13
7802;BME280;3945;48.952;9.506;2023-05-21T02:35:26;97472.00;;;15.84;86.40
7802;BME280;3945;48.952;9.506;2023-05-21T02:37:53;97462.91;;;15.80;86.56
7802;BME280;3945;48.952;9.506;2023-05-21T02:40:22;97458.88;;;15.82;86.22
7802;BME280;3945;48.952;9.506;2023-05-21T02:42:49;97458.41;;;15.75;86.39
7802;BME280;3945;48.952;9.506;2023-05-21T02:45:15;97464.06;;;15.74;86.32
7802;BME280;3945;48.952;9.506;2023-05-21T02:47:42;97458.19;;;15.72;86.63
7802;BME280;3945;48.952;9.506;2023-05-21T02:50:09;97449.41;;;15.66;86.82
7802;BME280;3945;48.952;9.506;2023-05-21T02:52:36;97449.47;;;15.61;87.23
7802;BME280;3945;48.952;9.506;2023-05-21T02:55:02;97452.69;;;15.58;87.21
7802;BME280;3945;48.952;9.506;2023-05-21T02:57:29;97456.19;;;15.58;87.42
7802;BME280;3945;48.952;9.506;2023-05-21T02:59:55;97462.88;;;15.61;87.06
7802;BME280;3945;48.952;9.506;2023-05-21T03:02:21;97458.06;;;15.58;87.35
7802;BME280;3945;48.952;9.506;2023-05-21T03:04:48;97457.84;;;15.54;87.56
7802;BME280;3945;48.952;9.506;2023-05-21T03:07:16;97460.25;;;15.51;87.59
7802;BME280;3945;48.952;9.506;2023-05-21T03:09:43;97457.84;;;15.54;86.99
7802;BME280;3945;48.952;9.506;2023-05-21T03:12:10;97457.03;;;15.54;87.55
7802;BME280;3945;48.952;9.506;2023-05-21T03:14:36;97457.56;;;15.51;87.64
7802;BME280;3945;48.952;9.506;2023-05-21T03:17:03;97459.50;;;15.45;87.81
7802;BME280;3945;48.952;9.506;2023-05-21T03:19:30;97460.06;;;15.42;87.86
7802;BME280;3945;48.952;9.506;2023-05-21T03:21:58;97460.91;;;15.38;88.22
7802;BME280;3945;48.952;9.506;2023-05-21T03:24:26;97462.81;;;15.37;88.37
7802;BME280;3945;48.952;9.506;2023-05-21T03:26:53;97455.84;;;15.36;88.34
7802;BME280;3945;48.952;9.506;2023-05-21T03:29:19;97456.91;;;15.35;88.72
7802;BME280;3945;48.952;9.506;2023-05-21T03:31:46;97459.91;;;15.34;88.59
7802;BME280;3945;48.952;9.506;2023-05-21T03:34:12;97459.38;;;15.32;88.74
7802;BME280;3945;48.952;9.506;2023-05-21T03:36:38;97458.56;;;15.31;88.92
7802;BME280;3945;48.952;9.506;2023-05-21T03:39:05;97451.38;;;15.27;88.70
7802;BME280;3945;48.952;9.506;2023-05-21T03:41:33;97451.09;;;15.28;88.89
7802;BME280;3945;48.952;9.506;2023-05-21T03:43:59;97456.75;;;15.27;88.78
7802;BME280;3945;48.952;9.506;2023-05-21T03:46:25;97463.19;;;15.26;88.54
7802;BME280;3945;48.952;9.506;2023-05-21T03:48:52;97447.91;;;15.26;88.42
7802;BME280;3945;48.952;9.506;2023-05-21T03:51:18;97449.50;;;15.27;88.12
7802;BME280;3945;48.952;9.506;2023-05-21T03:53:45;97453.75;;;15.28;88.19
7802;BME280;3945;48.952;9.506;2023-05-21T03:56:11;97454.28;;;15.30;88.03
7802;BME280;3945;48.952;9.506;2023-05-21T03:58:39;97459.91;;;15.29;88.19
7802;BME280;3945;48.952;9.506;2023-05-21T04:01:05;97459.66;;;15.30;88.30
7802;BME280;3945;48.952;9.506;2023-05-21T04:03:32;97457.25;;;15.29;88.28
7802;BME280;3945;48.952;9.506;2023-05-21T04:05:59;97457.78;;;15.31;88.14
7802;BME280;3945;48.952;9.506;2023-05-21T04:08:25;97460.19;;;15.32;88.26
7802;BME280;3945;48.952;9.506;2023-05-21T04:10:52;97458.78;;;15.35;87.87
7802;BME280;3945;48.952;9.506;2023-05-21T04:13:18;97464.94;;;15.40;87.44
7802;BME280;3945;48.952;9.506;2023-05-21T04:15:46;97465.72;;;15.41;87.49
7802;BME280;3945;48.952;9.506;2023-05-21T04:18:13;97466.75;;;15.45;87.16
7802;BME280;3945;48.952;9.506;2023-05-21T04:20:40;97464.53;;;15.52;86.91
7802;BME280;3945;48.952;9.506;2023-05-21T04:23:07;97476.34;;;15.56;86.42
7802;BME280;3945;48.952;9.506;2023-05-21T04:25:33;97469.84;;;15.62;85.86
7802;BME280;3945;48.952;9.506;2023-05-21T04:27:59;97467.09;;;15.67;85.18
7802;BME280;3945;48.952;9.506;2023-05-21T04:30:26;97464.06;;;15.74;85.06
7802;BME280;3945;48.952;9.506;2023-05-21T04:32:54;97481.72;;;15.80;84.83
7802;BME280;3945;48.952;9.506;2023-05-21T04:35:21;97484.63;;;15.83;84.75
7802;BME280;3945;48.952;9.506;2023-05-21T04:37:48;97489.13;;;15.88;84.36
7802;BME280;3945;48.952;9.506;2023-05-21T04:40:16;97484.50;;;15.93;83.98
7802;BME280;3945;48.952;9.506;2023-05-21T04:42:48;97488.50;;;15.96;83.74
7802;BME280;3945;48.952;9.506;2023-05-21T04:45:15;97486.03;;;15.99;83.77
7802;BME280;3945;48.952;9.506;2023-05-21T04:47:41;97488.69;;;16.05;83.55
7802;BME280;3945;48.952;9.506;2023-05-21T04:50:09;97478.44;;;16.07;83.49
7802;BME280;3945;48.952;9.506;2023-05-21T04:52:36;97484.31;;;16.09;83.92
7802;BME280;3945;48.952;9.506;2023-05-21T04:55:04;97490.50;;;16.09;84.14
7802;BME280;3945;48.952;9.506;2023-05-21T04:57:31;97491.81;;;16.12;83.32
7802;BME280;3945;48.952;9.506;2023-05-21T04:59:57;97491.81;;;16.12;83.66
7802;BME280;3945;48.952;9.506;2023-05-21T05:02:23;97498.78;;;16.13;82.81
7802;BME280;3945;48.952;9.506;2023-05-21T05:04:50;97491.47;;;16.18;82.84
7802;BME280;3945;48.952;9.506;2023-05-21T05:07:17;97500.31;;;16.19;82.90
7802;BME280;3945;48.952;9.506;2023-05-21T05:09:44;97488.72;;;16.23;82.66
7802;BME280;3945;48.952;9.506;2023-05-21T05:12:10;97488.94;;;16.27;82.65
7802;BME280;3945;48.952;9.506;2023-05-21T05:14:36;97496.41;;;16.30;82.06
7802;BME280;3945;48.952;9.506;2023-05-21T05:17:03;97494.78;;;16.34;82.17
7802;BME280;3945;48.952;9.506;2023-05-21T05:19:32;97498.19;;;16.39;81.95
7802;BME280;3945;48.952;9.506;2023-05-21T05:21:59;97496.50;;;16.44;82.48
7802;BME280;3945;48.952;9.506;2023-05-21T05:24:27;97499.34;;;16.52;81.89
7802;BME280;3945;48.952;9.506;2023-05-21T05:26:53;97495.34;;;16.50;83.00
7802;BME280;3945;48.952;9.506;2023-05-21T05:29:19;97500.66;;;16.55;82.90
7802;BME280;3945;48.952;9.506;2023-05-21T05:31:46;97492.81;;;16.58;82.90
7802;BME280;3945;48.952;9.506;2023-05-21T05:34:12;97493.81;;;16.67;82.22
7802;BME280;3945;48.952;9.506;2023-05-21T05:36:38;97487.53;;;16.72;81.95
7802;BME280;3945;48.952;9.506;2023-05-21T05:39:05;97500.19;;;16.71;82.61
7802;BME280;3945;48.952;9.506;2023-05-21T05:41:33;97484.28;;;16.75;82.36
7802;BME280;3945;48.952;9.506;2023-05-21T05:43:59;97489.38;;;16.76;82.43
7802;BME280;3945;48.952;9.506;2023-05-21T05:46:25;97496.78;;;16.85;82.85
7802;BME280;3945;48.952;9.506;2023-05-21T05:48:52;97493.00;;;16.86;83.98
7802;BME280;3945;48.952;9.506;2023-05-21T05:51:18;97497.00;;;16.88;83.73
7802;BME280;3945;48.952;9.506;2023-05-21T05:53:45;97490.75;;;16.93;82.28
7802;BME280;3945;48.952;9.506;2023-05-21T05:56:11;97491.47;;;16.98;82.21
7802;BME280;3945;48.952;9.506;2023-05-21T05:58:39;97496.47;;;17.05;79.61
7802;BME280;3945;48.952;9.506;2023-05-21T06:01:05;97495.59;;;17.09;79.88
7802;BME280;3945;48.952;9.506;2023-05-21T06:03:31;97493.31;;;17.16;81.13
7802;BME280;3945;48.952;9.506;2023-05-21T06:05:58;97503.41;;;17.25;81.86
7802;BME280;3945;48.952;9.506;2023-05-21T06:08:24;97497.38;;;17.33;80.29
7802;BME280;3945;48.952;9.506;2023-05-21T06:10:51;97503.66;;;17.42;79.03
7802;BME280;3945;48.952;9.506;2023-05-21T06:13:17;97501.88;;;17.51;79.70
7802;BME280;3945;48.952;9.506;2023-05-21T06:15:45;97509.28;;;17.59;77.71
7802;BME280;3945;48.952;9.506;2023-05-21T06:18:11;97505.13;;;17.67;78.07
7802;BME280;3945;48.952;9.506;2023-05-21T06:20:37;97504.16;;;17.76;77.01
7802;BME280;3945;48.952;9.506;2023-05-21T06:23:04;97502.16;;;17.82;76.34
7802;BME280;3945;48.952;9.506;2023-05-21T06:25:32;97502.56;;;17.89;76.08
7802;BME280;3945;48.952;9.506;2023-05-21T06:27:59;97501.09;;;17.97;76.02
7802;BME280;3945;48.952;9.506;2023-05-21T06:30:25;97505.19;;;18.08;76.02
7802;BME280;3945;48.952;9.506;2023-05-21T06:32:53;97504.69;;;18.19;76.63
7802;BME280;3945;48.952;9.506;2023-05-21T06:35:19;97506.84;;;18.31;77.01
7802;BME280;3945;48.952;9.506;2023-05-21T06:37:46;97498.56;;;18.41;77.08
7802;BME280;3945;48.952;9.506;2023-05-21T06:40:12;97509.16;;;18.51;74.97
7802;BME280;3945;48.952;9.506;2023-05-21T06:42:39;97511.13;;;18.59;74.60
7802;BME280;3945;48.952;9.506;2023-05-21T06:45:05;97510.13;;;18.69;74.23
7802;BME280;3945;48.952;9.506;2023-05-21T06:47:32;97510.34;;;18.73;75.23
7802;BME280;3945;48.952;9.506;2023-05-21T06:50:00;97513.88;;;18.82;75.84
7802;BME280;3945;48.952;9.506;2023-05-21T06:52:26;97513.03;;;18.95;72.34
7802;BME280;3945;48.952;9.506;2023-05-21T06:54:52;97519.94;;;19.01;70.80
7802;BME280;3945;48.952;9.506;2023-05-21T06:57:19;97519.50;;;19.07;72.11
7802;BME280;3945;48.952;9.506;2023-05-21T06:59:45;97515.47;;;19.19;70.89
7802;BME280;3945;48.952;9.506;2023-05-21T07:02:11;97514.84;;;19.22;70.70
7802;BME280;3945;48.952;9.506;2023-05-21T07:04:38;97518.91;;;19.33;69.70
7802;BME280;3945;48.952;9.506;2023-05-21T07:07:06;97517.75;;;19.47;69.22
7802;BME280;3945;48.952;9.506;2023-05-21T07:09:32;97516.31;;;19.72;70.27
7802;BME280;3945;48.952;9.506;2023-05-21T07:11:59;97515.97;;;20.05;68.91
7802;BME280;3945;48.952;9.506;2023-05-21T07:14:26;97507.84;;;20.36;66.84
7802;BME280;3945;48.952;9.506;2023-05-21T07:16:52;97510.16;;;20.59;66.59
7802;BME280;3945;48.952;9.506;2023-05-21T07:19:18;97512.53;;;20.78;65.75
7802;BME280;3945;48.952;9.506;2023-05-21T07:21:45;97509.53;;;20.88;64.60
7802;BME280;3945;48.952;9.506;2023-05-21T07:24:13;97514.63;;;20.98;64.12
7802;BME280;3945;48.952;9.506;2023-05-21T07:26:39;97508.72;;;21.05;63.67
7802;BME280;3945;48.952;9.506;2023-05-21T07:29:06;97514.47;;;21.12;64.65
7802;BME280;3945;48.952;9.506;2023-05-21T07:31:32;97518.63;;;21.18;63.95
7802;BME280;3945;48.952;9.506;2023-05-21T07:33:58;97517.19;;;21.21;64.92
7802;BME280;3945;48.952;9.506;2023-05-21T07:36:25;97518.31;;;21.20;63.75
7802;BME280;3945;48.952;9.506;2023-05-21T07:38:51;97517.19;;;21.21;63.45
7802;BME280;3945;48.952;9.506;2023-05-21T07:41:19;97517.69;;;21.23;63.55
7802;BME280;3945;48.952;9.506;2023-05-21T07:43:46;97519.72;;;21.26;62.35
7802;BME280;3945;48.952;9.506;2023-05-21T07:46:12;97522.13;;;21.27;61.75
7802;BME280;3945;48.952;9.506;2023-05-21T07:48:38;97518.16;;;21.16;61.68
7802;BME280;3945;48.952;9.506;2023-05-21T07:51:05;97518.97;;;21.17;61.89
7802;BME280;3945;48.952;9.506;2023-05-21T07:53:32;97521.94;;;21.15;61.60
7802;BME280;3945;48.952;9.506;2023-05-21T07:55:58;97515.75;;;21.06;61.96
7802;BME280;3945;48.952;9.506;2023-05-21T07:58:26;97516.69;;;21.01;62.64
7802;BME280;3945;48.952;9.506;2023-05-21T08:00:52;97522.75;;;21.07;63.16
7802;BME280;3945;48.952;9.506;2023-05-21T08:03:19;97516.88;;;21.22;64.19
7802;BME280;3945;48.952;9.506;2023-05-21T08:05:46;97514.16;;;21.39;62.97
7802;BME280;3945;48.952;9.506;2023-05-21T08:08:13;97513.81;;;21.58;62.91
7802;BME280;3945;48.952;9.506;2023-05-21T08:10:39;97522.06;;;21.70;60.90
7802;BME280;3945;48.952;9.506;2023-05-21T08:13:06;97525.69;;;21.83;63.30
7802;BME280;3945;48.952;9.506;2023-05-21T08:15:34;97516.28;;;21.89;60.33
7802;BME280;3945;48.952;9.506;2023-05-21T08:18:00;97516.59;;;21.96;61.68
7802;BME280;3945;48.952;9.506;2023-05-21T08:20:26;97513.19;;;22.08;61.70
7802;BME280;3945;48.952;9.506;2023-05-21T08:22:54;97505.50;;;22.18;60.36
7802;BME280;3945;48.952;9.506;2023-05-21T08:25:21;97517.09;;;22.28;59.33
7802;BME280;3945;48.952;9.506;2023-05-21T08:27:47;97507.28;;;22.44;59.43
7802;BME280;3945;48.952;9.506;2023-05-21T08:30:13;97514.38;;;22.57;58.63
7802;BME280;3945;48.952;9.506;2023-05-21T08:32:41;97516.22;;;22.74;60.67
7802;BME280;3945;48.952;9.506;2023-05-21T08:35:08;97511.66;;;22.86;57.62
7802;BME280;3945;48.952;9.506;2023-05-21T08:37:34;97508.16;;;23.07;59.47
7802;BME280;3945;48.952;9.506;2023-05-21T08:40:01;97505.00;;;23.38;61.06
7802;BME280;3945;48.952;9.506;2023-05-21T08:42:29;97511.13;;;23.67;58.07
7802;BME280;3945;48.952;9.506;2023-05-21T08:44:58;97508.81;;;23.90;57.55
7802;BME280;3945;48.952;9.506;2023-05-21T08:47:25;97506.31;;;24.09;57.61
7802;BME280;3945;48.952;9.506;2023-05-21T08:49:53;97498.22;;;24.34;57.72
7802;BME280;3945;48.952;9.506;2023-05-21T08:52:19;97499.75;;;24.59;58.00
7802;BME280;3945;48.952;9.506;2023-05-21T08:54:47;97499.38;;;24.85;56.00
7802;BME280;3945;48.952;9.506;2023-05-21T08:57:14;97496.28;;;25.11;55.26
7802;BME280;3945;48.952;9.506;2023-05-21T08:59:42;97492.28;;;25.36;53.39
7802;BME280;3945;48.952;9.506;2023-05-21T09:02:09;97496.75;;;25.56;52.83
7802;BME280;3945;48.952;9.506;2023-05-21T09:04:37;97494.63;;;25.78;54.07
7802;BME280;3945;48.952;9.506;2023-05-21T09:07:05;97493.84;;;25.93;51.84
7802;BME280;3945;48.952;9.506;2023-05-21T09:09:32;97499.38;;;25.96;52.21
7802;BME280;3945;48.952;9.506;2023-05-21T09:11:59;97498.41;;;26.04;51.54
7802;BME280;3945;48.952;9.506;2023-05-21T09:14:25;97499.03;;;26.14;50.51
7802;BME280;3945;48.952;9.506;2023-05-21T09:16:52;97498.31;;;26.17;51.40
7802;BME280;3945;48.952;9.506;2023-05-21T09:19:19;97501.94;;;26.21;50.13
7802;BME280;3945;48.952;9.506;2023-05-21T09:21:45;97503.94;;;26.24;51.51
7802;BME280;3945;48.952;9.506;2023-05-21T09:24:13;97500.97;;;26.13;49.62
7802;BME280;3945;48.952;9.506;2023-05-21T09:26:41;97501.28;;;25.80;53.90
7802;BME280;3945;48.952;9.506;2023-05-21T09:29:07;97505.78;;;25.45;52.55
7802;BME280;3945;48.952;9.506;2023-05-21T09:31:34;97515.09;;;25.44;51.80
7802;BME280;3945;48.952;9.506;2023-05-21T09:34:00;97509.81;;;25.51;52.33
7802;BME280;3945;48.952;9.506;2023-05-21T09:36:27;97508.81;;;25.55;53.02
7802;BME280;3945;48.952;9.506;2023-05-21T09:38:54;97502.84;;;25.65;53.81
7802;BME280;3945;48.952;9.506;2023-05-21T09:41:31;97508.69;;;25.80;54.06
7802;BME280;3945;48.952;9.506;2023-05-21T09:43:58;97491.72;;;26.02;52.78
7802;BME280;3945;48.952;9.506;2023-05-21T09:46:24;97500.69;;;26.18;53.29
7802;BME280;3945;48.952;9.506;2023-05-21T09:48:51;97507.81;;;26.23;53.64
7802;BME280;3945;48.952;9.506;2023-05-21T09:51:17;97495.88;;;26.27;49.90
7802;BME280;3945;48.952;9.506;2023-05-21T09:53:48;97501.59;;;26.38;49.72
7802;BME280;3945;48.952;9.506;2023-05-21T09:56:15;97497.41;;;26.60;50.80
7802;BME280;3945;48.952;9.506;2023-05-21T09:58:43;97497.31;;;26.72;49.96
7802;BME280;3945;48.952;9.506;2023-05-21T10:01:10;97496.38;;;26.83;48.13
7802;BME280;3945;48.952;9.506;2023-05-21T10:03:37;97494.34;;;26.96;50.35
7802;BME280;3945;48.952;9.506;2023-05-21T10:06:04;97491.09;;;27.10;50.02
7802;BME280;3945;48.952;9.506;2023-05-21T10:08:31;97489.44;;;27.25;51.79
7802;BME280;3945;48.952;9.506;2023-05-21T10:11:00;97490.16;;;27.41;53.58
7802;BME280;3945;48.952;9.506;2023-05-21T10:13:27;97492.75;;;27.53;49.06
7802;BME280;3945;48.952;9.506;2023-05-21T10:15:57;97494.84;;;27.59;47.58
7802;BME280;3945;48.952;9.506;2023-05-21T10:18:24;97493.75;;;27.64;49.29
7802;BME280;3945;48.952;9.506;2023-05-21T10:20:51;97489.03;;;27.84;49.04
7802;BME280;3945;48.952;9.506;2023-05-21T10:23:18;97493.13;;;27.93;44.89
7802;BME280;3945;48.952;9.506;2023-05-21T10:25:45;97486.97;;;28.00;45.19
7802;BME280;3945;48.952;9.506;2023-05-21T10:28:12;97488.91;;;28.00;47.48
7802;BME280;3945;48.952;9.506;2023-05-21T10:30:41;97486.28;;;28.07;43.15
7802;BME280;3945;48.952;9.506;2023-05-21T10:33:09;97494.19;;;28.12;44.55
7802;BME280;3945;48.952;9.506;2023-05-21T10:35:37;97494.88;;;28.05;42.77
7802;BME280;3945;48.952;9.506;2023-05-21T10:38:03;97496.66;;;27.94;42.36
7802;BME280;3945;48.952;9.506;2023-05-21T10:40:29;97490.25;;;27.86;43.40
7802;BME280;3945;48.952;9.506;2023-05-21T10:43:07;97487.56;;;27.90;42.78
7802;BME280;3945;48.952;9.506;2023-05-21T10:45:41;97487.94;;;28.11;44.79
7802;BME280;3945;48.952;9.506;2023-05-21T10:48:18;97482.72;;;28.25;41.26
7802;BME280;3945;48.952;9.506;2023-05-21T10:50:53;97482.44;;;28.11;42.77
7802;BME280;3945;48.952;9.506;2023-05-21T10:53:27;97483.56;;;28.07;43.43
7802;BME280;3945;48.952;9.506;2023-05-21T10:56:00;97491.88;;;27.91;41.87
7802;BME280;3945;48.952;9.506;2023-05-21T10:58:41;97491.16;;;27.71;42.29
7802;BME280;3945;48.952;9.506;2023-05-21T11:01:11;97491.75;;;27.42;40.53
7802;BME280;3945;48.952;9.506;2023-05-21T11:03:40;97486.03;;;27.08;41.26
7802;BME280;3945;48.952;9.506;2023-05-21T11:06:07;97489.19;;;26.75;40.31
7802;BME280;3945;48.952;9.506;2023-05-21T11:08:33;97496.81;;;26.51;42.84
7802;BME280;3945;48.952;9.506;2023-05-21T11:11:01;97485.38;;;26.45;45.03
7802;BME280;3945;48.952;9.506;2023-05-21T11:13:28;97494.63;;;26.40;44.41
7802;BME280;3945;48.952;9.506;2023-05-21T11:16:15;97496.91;;;26.54;43.51
7802;BME280;3945;48.952;9.506;2023-05-21T11:18:59;97487.78;;;26.66;44.41
7802;BME280;3945;48.952;9.506;2023-05-21T11:21:27;97483.56;;;26.88;43.82
7802;BME280;3945;48.952;9.506;2023-05-21T11:23:55;97480.97;;;27.10;45.31
7802;BME280;3945;48.952;9.506;2023-05-21T11:26:25;97486.06;;;27.31;45.39
7802;BME280;3945;48.952;9.506;2023-05-21T11:29:04;97483.69;;;27.49;45.89
7802;BME280;3945;48.952;9.506;2023-05-21T11:31:32;97476.34;;;27.72;46.32
7802;BME280;3945;48.952;9.506;2023-05-21T11:34:12;97477.09;;;27.95;44.64
7802;BME280;3945;48.952;9.506;2023-05-21T11:36:38;97479.59;;;28.27;44.83
7802;BME280;3945;48.952;9.506;2023-05-21T11:39:08;97476.94;;;28.57;44.34
7802;BME280;3945;48.952;9.506;2023-05-21T11:44:38;97469.13;;;29.15;41.48
7802;BME280;3945;48.952;9.506;2023-05-21T11:47:05;97460.81;;;29.41;39.91
7802;BME280;3945;48.952;9.506;2023-05-21T11:49:33;97469.06;;;29.41;39.26
7802;BME280;3945;48.952;9.506;2023-05-21T11:52:00;97467.88;;;29.39;37.85
7802;BME280;3945;48.952;9.506;2023-05-21T11:54:27;97465.88;;;29.39;38.38
7802;BME280;3945;48.952;9.506;2023-05-21T11:57:00;97459.78;;;29.53;39.21
7802;BME280;3945;48.952;9.506;2023-05-21T11:59:27;97467.03;;;29.72;42.42
7802;BME280;3945;48.952;9.506;2023-05-21T12:01:53;97470.19;;;29.77;42.33
7802;BME280;3945;48.952;9.506;2023-05-21T12:04:20;97466.13;;;30.01;42.79
7802;BME280;3945;48.952;9.506;2023-05-21T12:06:48;97472.53;;;30.16;37.82
7802;BME280;3945;48.952;9.506;2023-05-21T12:09:15;97467.31;;;30.00;37.08
7802;BME280;3945;48.952;9.506;2023-05-21T12:11:42;97475.91;;;29.99;37.94
7802;BME280;3945;48.952;9.506;2023-05-21T12:14:08;97473.31;;;30.16;40.30
7802;BME280;3945;48.952;9.506;2023-05-21T12:16:35;97470.16;;;30.11;36.01
7802;BME280;3945;48.952;9.506;2023-05-21T12:19:02;97470.78;;;29.94;38.85
7802;BME280;3945;48.952;9.506;2023-05-21T12:21:28;97469.75;;;29.72;36.28
7802;BME280;3945;48.952;9.506;2023-05-21T12:23:56;97462.19;;;29.62;37.22
7802;BME280;3945;48.952;9.506;2023-05-21T12:26:23;97468.97;;;29.71;37.79
7802;BME280;3945;48.952;9.506;2023-05-21T12:28:50;97475.53;;;29.97;38.45
7802;BME280;3945;48.952;9.506;2023-05-21T12:31:16;97467.84;;;30.20;39.04
7802;BME280;3945;48.952;9.506;2023-05-21T12:33:43;97472.25;;;30.32;37.21
7802;BME280;3945;48.952;9.506;2023-05-21T12:36:09;97475.44;;;30.37;35.78
7802;BME280;3945;48.952;9.506;2023-05-21T12:38:36;97483.03;;;30.03;34.89
7802;BME280;3945;48.952;9.506;2023-05-21T12:41:04;97478.84;;;29.79;36.04
7802;BME280;3945;48.952;9.506;2023-05-21T12:43:30;97478.72;;;29.69;34.78
7802;BME280;3945;48.952;9.506;2023-05-21T12:45:57;97483.81;;;29.67;36.35
7802;BME280;3945;48.952;9.506;2023-05-21T12:48:23;97481.19;;;29.40;34.76
7802;BME280;3945;48.952;9.506;2023-05-21T12:50:50;97479.38;;;29.22;37.34
7802;BME280;3945;48.952;9.506;2023-05-21T12:53:16;97479.63;;;29.09;36.52
7802;BME280;3945;48.952;9.506;2023-05-21T12:55:43;97485.06;;;29.06;36.86
7802;BME280;3945;48.952;9.506;2023-05-21T12:58:11;97483.16;;;29.10;38.20
7802;BME280;3945;48.952;9.506;2023-05-21T13:00:40;97474.16;;;29.09;36.97
7802;BME280;3945;48.952;9.506;2023-05-21T13:03:06;97484.25;;;29.02;36.93
7802;BME280;3945;48.952;9.506;2023-05-21T13:05:33;97476.28;;;28.93;38.68
7802;BME280;3945;48.952;9.506;2023-05-21T13:08:00;97479.81;;;28.94;39.55
7802;BME280;3945;48.952;9.506;2023-05-21T13:10:26;97473.91;;;28.92;40.73
7802;BME280;3945;48.952;9.506;2023-05-21T13:12:52;97479.03;;;28.93;40.02
7802;BME280;3945;48.952;9.506;2023-05-21T13:15:20;97475.97;;;28.98;39.45
7802;BME280;3945;48.952;9.506;2023-05-21T13:17:46;97470.06;;;28.96;39.14
7802;BME280;3945;48.952;9.506;2023-05-21T13:20:13;97466.47;;;28.89;38.88
7802;BME280;3945;48.952;9.506;2023-05-21T13:22:41;97468.31;;;28.81;38.99
7802;BME280;3945;48.952;9.506;2023-05-21T13:25:08;97468.72;;;28.57;38.61